Neepawa, Canada
Current Conditions -  °F | °C
As of 6:00 PM on Friday 31 Oct 2014 (Local Time) from CYBR Reporting Station
Broken Clouds Broken Clouds  
Wind Chill: 29°   Ceiling: 16000
Heat Index: 37°   Visibility: 15mi
Dew Point: 14°   Wind: 13mph
Humidity: 38%   Direction: 160°SSE
Pressure: 30.22"   Gusts: 24mph
Location:  50.23°N, 99.45°W
Report Text: CYBR 312300Z 16011G21KT 15SM BKN160 BKN210 03/M10 A3022 RMK AC5CI2 SLP263
Loading
Personal Weather Stations






























Interactive Weather Map
Tropical Storm Tracking
New forecast layout! Learn more

10-Day Weather Forecast

Advertisements
Track Severe Weather on mobile